createdAt,value
2023-04-18T00:01:23.780Z,80.38
2023-04-18T00:03:50.932Z,80.27
2023-04-18T00:06:17.674Z,80.79
2023-04-18T00:08:44.219Z,81.32
2023-04-18T00:11:10.787Z,81.37
2023-04-18T00:13:39.347Z,82.03
2023-04-18T00:16:07.724Z,83.92
2023-04-18T00:18:36.807Z,84.66
2023-04-18T00:21:04.363Z,85.54
2023-04-18T00:23:31.136Z,86.55
2023-04-18T00:25:57.723Z,86.82
2023-04-18T00:28:24.472Z,87.20
2023-04-18T00:30:51.423Z,87.08
2023-04-18T00:33:18.314Z,87.18
2023-04-18T00:35:45.043Z,87.12
2023-04-18T00:38:11.632Z,86.42
2023-04-18T00:40:40.999Z,86.24
2023-04-18T00:43:08.439Z,85.68
2023-04-18T00:45:35.412Z,84.93
2023-04-18T00:48:02.106Z,84.61
2023-04-18T00:50:28.868Z,85.80
2023-04-18T00:52:55.847Z,86.63
2023-04-18T00:55:23.890Z,85.94
2023-04-18T00:57:50.962Z,85.99
2023-04-18T01:00:18.118Z,86.41
2023-04-18T01:02:44.925Z,85.38
2023-04-18T01:05:14.585Z,86.11
2023-04-18T01:07:41.535Z,86.15
2023-04-18T01:10:13.045Z,86.24
2023-04-18T01:12:40.697Z,85.76
2023-04-18T01:15:08.031Z,86.69
2023-04-18T01:17:36.266Z,86.84
2023-04-18T01:20:05.966Z,86.78
2023-04-18T01:22:33.288Z,86.90
2023-04-18T01:24:59.946Z,86.62
2023-04-18T01:27:26.509Z,87.55
2023-04-18T01:29:53.107Z,87.46
2023-04-18T01:32:21.496Z,88.00
2023-04-18T01:34:48.079Z,87.53
2023-04-18T01:37:14.643Z,87.27
2023-04-18T01:39:41.227Z,87.20
2023-04-18T01:42:07.920Z,86.64
2023-04-18T01:44:34.442Z,86.72
2023-04-18T01:47:01.172Z,86.65
2023-04-18T01:49:27.826Z,86.92
2023-04-18T01:51:54.524Z,87.10
2023-04-18T01:54:21.366Z,87.47
2023-04-18T01:56:47.929Z,87.94
2023-04-18T01:59:14.528Z,87.77
2023-04-18T02:01:41.166Z,86.72
2023-04-18T02:04:07.794Z,87.52
2023-04-18T02:06:34.439Z,87.79
2023-04-18T02:09:01.067Z,88.46
2023-04-18T02:11:27.670Z,88.81
2023-04-18T02:13:54.220Z,88.46
2023-04-18T02:16:20.875Z,88.38
2023-04-18T02:18:47.525Z,88.83
2023-04-18T02:21:14.152Z,87.82
2023-04-18T02:23:40.728Z,88.57
2023-04-18T02:26:07.328Z,89.07
2023-04-18T02:28:33.902Z,90.02
2023-04-18T02:31:03.039Z,89.09
2023-04-18T02:33:29.682Z,88.03
2023-04-18T02:35:56.324Z,89.23
2023-04-18T02:38:22.887Z,89.29
2023-04-18T02:40:51.883Z,88.57
2023-04-18T02:43:20.390Z,89.95
2023-04-18T02:45:47.037Z,89.23
2023-04-18T02:48:14.530Z,90.47
2023-04-18T02:50:41.304Z,90.92
2023-04-18T02:53:07.914Z,90.48
2023-04-18T02:55:48.926Z,90.89
2023-04-18T02:58:16.129Z,90.80
2023-04-18T03:01:12.663Z,90.42
2023-04-18T03:03:53.572Z,89.84
2023-04-18T03:06:50.075Z,90.86
2023-04-18T03:09:17.929Z,90.85
2023-04-18T03:11:49.693Z,91.49
2023-04-18T03:14:19.231Z,91.61
2023-04-18T03:16:53.883Z,92.50
2023-04-18T03:19:25.780Z,93.35
2023-04-18T03:21:54.389Z,93.67
2023-04-18T03:24:21.919Z,93.34
2023-04-18T03:26:51.454Z,93.49
2023-04-18T03:29:21.704Z,93.79
2023-04-18T03:31:48.389Z,95.04
2023-04-18T03:34:15.389Z,94.58
2023-04-18T03:36:44.510Z,94.83
2023-04-18T03:39:11.953Z,94.78
2023-04-18T03:41:38.688Z,94.38
2023-04-18T03:44:05.476Z,94.01
2023-04-18T03:46:35.341Z,94.98
2023-04-18T03:49:02.682Z,95.35
2023-04-18T03:51:34.432Z,96.03
2023-04-18T03:54:01.554Z,96.61
2023-04-18T03:56:28.147Z,96.20
2023-04-18T03:58:55.559Z,96.98
2023-04-18T04:01:22.661Z,97.05
2023-04-18T04:03:51.569Z,98.07
2023-04-18T04:06:18.393Z,97.47
2023-04-18T04:08:44.994Z,97.17
2023-04-18T04:11:11.940Z,96.88
2023-04-18T04:13:39.226Z,97.28
2023-04-18T04:16:06.987Z,96.69
2023-04-18T04:18:33.642Z,96.77
2023-04-18T04:21:03.410Z,97.22
2023-04-18T04:23:44.063Z,97.17
2023-04-18T04:26:23.073Z,97.45
2023-04-18T04:28:57.998Z,97.38
2023-04-18T04:31:27.273Z,96.29
2023-04-18T04:33:53.864Z,96.56
2023-04-18T04:36:23.010Z,96.75
2023-04-18T04:38:52.219Z,96.66
2023-04-18T04:41:22.993Z,97.43
2023-04-18T04:43:51.107Z,96.76
2023-04-18T04:46:20.440Z,97.11
2023-04-18T04:48:49.662Z,97.61
2023-04-18T04:51:16.225Z,97.40
2023-04-18T04:53:42.792Z,98.14
2023-04-18T04:56:09.528Z,98.46
2023-04-18T04:58:36.798Z,98.16
2023-04-18T05:01:14.545Z,97.90
2023-04-18T05:03:41.366Z,98.25
2023-04-18T05:06:08.105Z,99.67
2023-04-18T05:08:34.769Z,99.92
2023-04-18T05:11:01.882Z,98.91
2023-04-18T05:13:28.420Z,98.65
2023-04-18T05:15:54.980Z,98.68
2023-04-18T05:18:21.551Z,99.06
2023-04-18T05:20:48.091Z,99.43
2023-04-18T05:23:14.615Z,98.42
2023-04-18T05:25:41.407Z,99.28
2023-04-18T05:28:08.370Z,100.00
2023-04-18T05:30:34.968Z,99.13
2023-04-18T05:33:01.670Z,99.79
2023-04-18T05:35:28.328Z,100.00
2023-04-18T05:37:54.896Z,100.00
2023-04-18T05:40:21.604Z,100.00
2023-04-18T05:42:48.171Z,100.00
2023-04-18T05:45:17.770Z,100.00
2023-04-18T05:47:44.422Z,100.00
2023-04-18T05:50:14.128Z,100.00
2023-04-18T05:52:40.700Z,100.00
2023-04-18T05:55:07.827Z,100.00
2023-04-18T05:57:34.476Z,100.00
2023-04-18T06:00:01.084Z,100.00
2023-04-18T06:02:27.825Z,100.00
2023-04-18T06:04:54.829Z,100.00
2023-04-18T06:07:23.300Z,100.00
2023-04-18T06:09:49.980Z,100.00
2023-04-18T06:12:16.611Z,100.00
2023-04-18T06:14:43.160Z,100.00
2023-04-18T06:17:12.471Z,100.00
2023-04-18T06:19:39.583Z,100.00
2023-04-18T06:22:06.314Z,100.00
2023-04-18T06:24:32.898Z,100.00
2023-04-18T06:26:59.639Z,100.00
2023-04-18T06:29:30.248Z,100.00
2023-04-18T06:31:59.212Z,100.00
2023-04-18T06:34:25.848Z,100.00
2023-04-18T06:36:52.673Z,100.00
2023-04-18T06:39:19.259Z,100.00
2023-04-18T06:41:45.763Z,100.00
2023-04-18T06:44:19.652Z,100.00
2023-04-18T06:46:46.357Z,100.00
2023-04-18T06:49:12.907Z,100.00
2023-04-18T06:51:39.441Z,100.00
2023-04-18T06:54:05.995Z,100.00
2023-04-18T06:56:35.048Z,100.00
2023-04-18T06:59:03.092Z,100.00
2023-04-18T07:01:33.123Z,100.00
2023-04-18T07:03:59.789Z,100.00
2023-04-18T07:06:26.752Z,100.00
2023-04-18T07:08:55.870Z,100.00
2023-04-18T07:11:23.562Z,100.00
2023-04-18T07:13:50.391Z,100.00
2023-04-18T07:16:17.136Z,100.00
2023-04-18T07:18:43.803Z,100.00
2023-04-18T07:21:10.893Z,100.00
2023-04-18T07:23:37.726Z,100.00
2023-04-18T07:26:05.730Z,100.00
2023-04-18T07:28:32.998Z,100.00
2023-04-18T07:31:01.137Z,100.00
2023-04-18T07:33:31.549Z,100.00
2023-04-18T07:35:58.150Z,100.00
2023-04-18T07:38:24.829Z,100.00
2023-04-18T07:41:01.656Z,100.00
2023-04-18T07:43:28.219Z,100.00
2023-04-18T07:45:55.150Z,100.00
2023-04-18T07:48:22.408Z,100.00
2023-04-18T07:50:49.421Z,100.00
2023-04-18T07:53:15.971Z,100.00
2023-04-18T07:55:43.331Z,100.00
2023-04-18T07:58:10.103Z,100.00
2023-04-18T08:00:39.173Z,100.00
2023-04-18T08:03:07.654Z,100.00
2023-04-18T08:05:34.492Z,100.00
2023-04-18T08:08:01.291Z,100.00
2023-04-18T08:10:28.100Z,100.00
2023-04-18T08:12:54.724Z,100.00
2023-04-18T08:15:21.258Z,100.00
2023-04-18T08:17:49.123Z,100.00
2023-04-18T08:20:15.805Z,100.00
2023-04-18T08:23:01.390Z,100.00
2023-04-18T08:25:29.166Z,100.00
2023-04-18T08:27:55.927Z,100.00
2023-04-18T08:30:22.482Z,98.80
2023-04-18T08:32:49.686Z,99.28
2023-04-18T08:35:16.438Z,98.40
2023-04-18T08:37:43.377Z,99.21
2023-04-18T08:40:10.798Z,100.00
2023-04-18T08:42:38.703Z,98.70
2023-04-18T08:45:06.809Z,97.93
2023-04-18T08:47:35.372Z,97.81
2023-04-18T08:50:02.186Z,96.92
2023-04-18T08:52:30.914Z,96.21
2023-04-18T08:54:57.511Z,97.29
2023-04-18T08:57:26.577Z,95.58
2023-04-18T08:59:54.029Z,95.81
2023-04-18T09:02:24.287Z,94.62
2023-04-18T09:04:53.627Z,94.78
2023-04-18T09:07:31.070Z,93.54
2023-04-18T09:09:58.164Z,92.47
2023-04-18T09:12:26.779Z,92.89
2023-04-18T09:15:09.341Z,92.35
2023-04-18T09:17:38.050Z,93.37
2023-04-18T09:20:06.246Z,93.86
2023-04-18T09:22:53.344Z,92.78
2023-04-18T09:25:27.359Z,92.45
2023-04-18T09:27:54.100Z,91.51
2023-04-18T09:30:34.112Z,89.89
2023-04-18T09:33:01.739Z,89.83
2023-04-18T09:35:28.510Z,90.62
2023-04-18T09:37:55.495Z,92.70
2023-04-18T09:40:23.587Z,89.93
2023-04-18T09:42:53.604Z,87.41
2023-04-18T09:45:21.272Z,89.60
2023-04-18T09:47:48.028Z,90.57
2023-04-18T09:50:16.806Z,90.14
2023-04-18T09:52:45.153Z,90.18
2023-04-18T09:55:15.215Z,89.22
2023-04-18T09:57:44.780Z,89.09
2023-04-18T10:00:20.103Z,89.53
2023-04-18T10:03:04.996Z,89.04
2023-04-18T10:05:34.997Z,88.21
2023-04-18T10:08:03.118Z,88.77
2023-04-18T10:10:29.875Z,87.65
2023-04-18T10:12:58.404Z,87.45
2023-04-18T10:15:27.397Z,88.34
2023-04-18T10:18:04.282Z,87.66
2023-04-18T10:20:34.980Z,86.75
2023-04-18T10:23:30.831Z,87.00
2023-04-18T10:26:01.547Z,87.69
2023-04-18T10:28:53.094Z,85.55
2023-04-18T10:31:22.581Z,86.21
2023-04-18T10:34:03.328Z,84.31
2023-04-18T10:36:31.065Z,85.01
2023-04-18T10:39:02.916Z,84.94
2023-04-18T10:41:31.746Z,85.52
2023-04-18T10:44:08.483Z,83.45
2023-04-18T10:46:50.788Z,81.07
2023-04-18T10:49:30.313Z,81.69
2023-04-18T10:52:00.263Z,81.21
2023-04-18T10:54:47.598Z,82.42
2023-04-18T10:57:15.215Z,81.50
2023-04-18T10:59:43.757Z,81.34
2023-04-18T11:02:22.893Z,80.96
2023-04-18T11:04:55.159Z,80.71
2023-04-18T11:07:38.325Z,79.17
2023-04-18T11:10:07.170Z,78.12
2023-04-18T11:12:38.367Z,78.94
2023-04-18T11:15:24.917Z,77.74
2023-04-18T11:17:58.174Z,78.51
2023-04-18T11:20:25.043Z,77.90
2023-04-18T11:23:00.746Z,78.06
2023-04-18T11:25:30.229Z,76.90
2023-04-18T11:27:58.812Z,76.89
2023-04-18T11:30:25.708Z,76.05
2023-04-18T11:32:52.420Z,74.69
2023-04-18T11:35:19.097Z,74.31
2023-04-18T11:37:45.904Z,75.13
2023-04-18T11:40:16.299Z,74.37
2023-04-18T11:42:42.931Z,72.95
2023-04-18T11:45:14.263Z,71.38
2023-04-18T11:47:44.840Z,72.23
2023-04-18T11:50:13.370Z,71.44
2023-04-18T11:52:42.265Z,71.42
2023-04-18T11:55:21.587Z,71.43
2023-04-18T11:57:56.063Z,73.19
2023-04-18T12:00:39.233Z,74.01
2023-04-18T12:03:08.518Z,72.89
2023-04-18T12:05:38.321Z,73.06
2023-04-18T12:08:09.884Z,72.62
2023-04-18T12:10:36.564Z,72.75
2023-04-18T12:13:08.033Z,73.35
2023-04-18T12:15:39.275Z,73.88
2023-04-18T12:18:09.843Z,73.83
2023-04-18T12:20:46.695Z,71.59
2023-04-18T12:23:36.730Z,69.06
2023-04-18T12:26:04.194Z,70.01
2023-04-18T12:28:31.650Z,68.60
2023-04-18T12:30:59.014Z,68.00
2023-04-18T12:33:26.259Z,67.96
2023-04-18T12:35:53.472Z,68.42
2023-04-18T12:38:22.139Z,69.85
2023-04-18T12:40:50.126Z,68.36
2023-04-18T12:43:17.685Z,69.40
2023-04-18T12:45:46.048Z,69.50
2023-04-18T12:48:13.193Z,68.90
2023-04-18T12:50:39.805Z,67.72
2023-04-18T12:53:06.688Z,67.27
2023-04-18T12:55:33.312Z,67.91
2023-04-18T12:57:59.951Z,67.89
2023-04-18T13:00:29.254Z,69.94
2023-04-18T13:02:56.420Z,69.12
2023-04-18T13:05:27.017Z,69.14
2023-04-18T13:08:04.825Z,70.50
2023-04-18T13:10:39.721Z,69.21
2023-04-18T13:13:06.313Z,68.82
2023-04-18T13:15:32.978Z,69.17
2023-04-18T13:18:04.542Z,68.10
2023-04-18T13:20:32.535Z,68.46
2023-04-18T13:22:59.118Z,68.86
2023-04-18T13:25:26.589Z,68.55
2023-04-18T13:27:53.372Z,69.29
2023-04-18T13:30:20.048Z,69.31
2023-04-18T13:32:47.032Z,68.63
2023-04-18T13:35:13.691Z,68.48
2023-04-18T13:37:40.243Z,70.45
2023-04-18T13:40:07.754Z,68.82
2023-04-18T13:42:35.662Z,70.50
2023-04-18T13:45:03.165Z,68.11
2023-04-18T13:47:30.033Z,69.33
2023-04-18T13:49:57.658Z,69.42
2023-04-18T13:52:24.556Z,68.08
2023-04-18T13:54:51.084Z,68.12
2023-04-18T13:57:17.624Z,67.90
2023-04-18T13:59:44.168Z,67.53
2023-04-18T14:02:11.288Z,65.25
2023-04-18T14:04:38.239Z,65.26
2023-04-18T14:07:06.244Z,64.67
2023-04-18T14:09:33.149Z,64.79
2023-04-18T14:11:59.855Z,64.63
2023-04-18T14:14:26.380Z,66.08
2023-04-18T14:16:53.687Z,66.11
2023-04-18T14:19:20.405Z,66.49
2023-04-18T14:21:50.980Z,63.08
2023-04-18T14:24:17.657Z,63.11
2023-04-18T14:26:44.254Z,62.34
2023-04-18T14:29:11.137Z,63.52
2023-04-18T14:31:37.873Z,60.59
2023-04-18T14:34:04.731Z,60.17
2023-04-18T14:36:31.879Z,61.43
2023-04-18T14:38:59.110Z,60.98
2023-04-18T14:41:25.689Z,60.77
2023-04-18T14:43:52.303Z,62.77
2023-04-18T14:46:20.964Z,59.35
2023-04-18T14:48:47.602Z,58.50
2023-04-18T14:51:17.469Z,59.71
2023-04-18T14:53:44.816Z,60.79
2023-04-18T14:56:11.807Z,59.45
2023-04-18T14:58:38.403Z,59.61
2023-04-18T15:01:05.720Z,58.98
2023-04-18T15:03:32.508Z,58.58
2023-04-18T15:05:59.275Z,59.10
2023-04-18T15:08:25.908Z,59.79
2023-04-18T15:10:52.454Z,58.95
2023-04-18T15:13:19.472Z,58.99
2023-04-18T15:15:53.222Z,58.92
2023-04-18T15:18:20.114Z,58.20
2023-04-18T15:20:47.471Z,60.45
2023-04-18T15:23:14.464Z,60.63
2023-04-18T15:25:42.172Z,59.42
2023-04-18T15:28:08.878Z,58.82
2023-04-18T15:30:35.656Z,57.79
2023-04-18T15:33:02.752Z,58.49
2023-04-18T15:35:29.423Z,59.05
2023-04-18T15:37:57.308Z,59.39
2023-04-18T15:40:24.051Z,59.07
2023-04-18T15:42:53.435Z,60.61
2023-04-18T15:45:20.912Z,60.38
2023-04-18T15:47:47.730Z,59.58
2023-04-18T15:50:15.880Z,59.83
2023-04-18T15:52:42.568Z,58.00
2023-04-18T15:55:11.369Z,58.51
2023-04-18T15:57:38.036Z,58.89
2023-04-18T16:00:11.115Z,59.58
2023-04-18T16:02:37.881Z,58.46
2023-04-18T16:05:05.012Z,58.49
2023-04-18T16:07:31.651Z,59.39
2023-04-18T16:09:58.224Z,58.63
2023-04-18T16:12:24.773Z,59.40
2023-04-18T16:14:52.032Z,59.02
2023-04-18T16:17:18.638Z,57.58
2023-04-18T16:19:45.186Z,57.02
2023-04-18T16:22:12.369Z,57.70
2023-04-18T16:24:40.861Z,58.80
2023-04-18T16:27:08.570Z,58.62
2023-04-18T16:29:35.372Z,57.80
2023-04-18T16:32:02.907Z,58.31
2023-04-18T16:34:29.547Z,58.35
2023-04-18T16:36:56.137Z,58.73
2023-04-18T16:39:22.797Z,58.13
2023-04-18T16:41:49.546Z,58.38
2023-04-18T16:44:16.424Z,56.76
2023-04-18T16:46:43.202Z,55.91
2023-04-18T16:49:09.856Z,56.55
2023-04-18T16:51:37.712Z,56.19
2023-04-18T16:54:06.028Z,56.38
2023-04-18T16:56:32.552Z,56.91
2023-04-18T16:58:59.219Z,57.63
2023-04-18T17:01:25.851Z,59.38
2023-04-18T17:03:52.522Z,59.04
2023-04-18T17:06:19.409Z,59.26
2023-04-18T17:08:46.152Z,57.42
2023-04-18T17:11:12.660Z,56.97
2023-04-18T17:13:39.262Z,57.26
2023-04-18T17:16:06.885Z,57.64
2023-04-18T17:18:33.448Z,59.12
2023-04-18T17:21:00.001Z,60.48
2023-04-18T17:23:26.773Z,61.85
2023-04-18T17:25:53.337Z,61.27
2023-04-18T17:28:21.126Z,61.98
2023-04-18T17:30:47.803Z,63.06
2023-04-18T17:33:14.354Z,62.48
2023-04-18T17:35:51.813Z,62.32
2023-04-18T17:38:25.439Z,63.13
2023-04-18T17:41:02.351Z,64.13
2023-04-18T17:43:28.997Z,63.57
2023-04-18T17:45:55.898Z,63.80
2023-04-18T17:48:22.644Z,63.81
2023-04-18T17:50:49.155Z,64.42
2023-04-18T17:53:15.794Z,64.39
2023-04-18T17:55:42.460Z,65.33
2023-04-18T17:58:09.250Z,66.29
2023-04-18T18:00:35.952Z,66.48
2023-04-18T18:03:03.444Z,66.36
2023-04-18T18:05:30.715Z,66.87
2023-04-18T18:07:57.599Z,66.95
2023-04-18T18:10:24.991Z,66.64
2023-04-18T18:12:51.626Z,67.05
2023-04-18T18:15:18.554Z,67.24
2023-04-18T18:17:45.138Z,67.41
2023-04-18T18:20:14.835Z,68.27
2023-04-18T18:22:41.564Z,67.97
2023-04-18T18:25:08.596Z,67.88
2023-04-18T18:27:35.991Z,68.27
2023-04-18T18:30:03.201Z,68.55
2023-04-18T18:32:29.825Z,68.92
2023-04-18T18:34:56.373Z,69.24
2023-04-18T18:37:25.413Z,69.30
2023-04-18T18:39:54.213Z,70.37
2023-04-18T18:42:20.812Z,70.80
2023-04-18T18:44:47.337Z,70.85
2023-04-18T18:47:13.924Z,71.46
2023-04-18T18:49:40.748Z,71.20
2023-04-18T18:52:07.221Z,71.48
2023-04-18T18:54:34.283Z,71.95
2023-04-18T18:57:03.783Z,71.92
2023-04-18T18:59:30.487Z,72.44
2023-04-18T19:01:57.075Z,72.68
2023-04-18T19:04:24.354Z,72.36
2023-04-18T19:06:51.195Z,72.60
2023-04-18T19:09:17.842Z,73.64
2023-04-18T19:11:44.376Z,73.46
2023-04-18T19:14:11.976Z,73.03
2023-04-18T19:16:38.721Z,73.09
2023-04-18T19:19:05.340Z,74.55
2023-04-18T19:21:31.944Z,75.31
2023-04-18T19:23:58.525Z,75.18
2023-04-18T19:26:25.079Z,75.68
2023-04-18T19:28:51.692Z,75.34
2023-04-18T19:31:18.855Z,75.83
2023-04-18T19:33:45.937Z,75.73
2023-04-18T19:36:12.543Z,75.89
2023-04-18T19:38:39.064Z,75.14
2023-04-18T19:41:05.634Z,75.54
2023-04-18T19:43:32.288Z,75.47
2023-04-18T19:45:59.214Z,75.50
2023-04-18T19:48:26.560Z,75.57
2023-04-18T19:50:53.205Z,75.65
2023-04-18T19:53:20.427Z,76.12
2023-04-18T19:55:46.994Z,76.79
2023-04-18T19:58:34.366Z,76.03
2023-04-18T20:01:02.517Z,76.18
2023-04-18T20:03:29.219Z,76.34
2023-04-18T20:05:56.074Z,76.49
2023-04-18T20:08:22.725Z,77.02
2023-04-18T20:10:49.289Z,76.67
2023-04-18T20:13:15.838Z,77.18
2023-04-18T20:15:44.825Z,77.59
2023-04-18T20:18:11.873Z,77.42
2023-04-18T20:20:38.579Z,77.14
2023-04-18T20:23:05.358Z,77.62
2023-04-18T20:25:34.057Z,78.20
2023-04-18T20:28:00.747Z,79.30
2023-04-18T20:30:29.609Z,80.40
2023-04-18T20:32:56.335Z,80.43
2023-04-18T20:35:22.925Z,81.08
2023-04-18T20:37:50.184Z,81.48
2023-04-18T20:40:16.749Z,80.63
2023-04-18T20:42:43.300Z,81.96
2023-04-18T20:45:11.030Z,81.94
2023-04-18T20:47:41.344Z,82.29
2023-04-18T20:50:08.836Z,81.70
2023-04-18T20:52:35.429Z,82.61
2023-04-18T20:55:02.157Z,82.51
2023-04-18T20:57:28.759Z,82.71
2023-04-18T20:59:58.513Z,82.80
2023-04-18T21:02:26.400Z,82.67
2023-04-18T21:04:53.276Z,84.37
2023-04-18T21:07:21.078Z,84.42
2023-04-18T21:09:47.637Z,84.11
2023-04-18T21:12:14.199Z,84.88
2023-04-18T21:14:40.790Z,84.27
2023-04-18T21:17:09.532Z,83.96
2023-04-18T21:19:36.663Z,85.37
2023-04-18T21:22:03.221Z,84.51
2023-04-18T21:24:29.816Z,84.89
2023-04-18T21:26:57.726Z,85.41
2023-04-18T21:29:24.289Z,86.14
2023-04-18T21:31:51.532Z,86.35
2023-04-18T21:34:18.288Z,86.60
2023-04-18T21:36:44.882Z,87.39
2023-04-18T21:39:11.392Z,86.93
2023-04-18T21:41:38.179Z,86.50
2023-04-18T21:44:04.806Z,87.78
2023-04-18T21:46:31.349Z,86.91
2023-04-18T21:48:57.880Z,86.67
2023-04-18T21:51:24.440Z,86.33
2023-04-18T21:53:50.974Z,86.71
2023-04-18T21:56:17.545Z,86.20
2023-04-18T21:58:44.172Z,86.61
2023-04-18T22:01:10.860Z,85.65
2023-04-18T22:03:38.023Z,86.13
2023-04-18T22:06:04.897Z,86.12
2023-04-18T22:08:31.597Z,86.08
2023-04-18T22:11:00.237Z,86.40
2023-04-18T22:13:32.950Z,86.58
2023-04-18T22:16:03.358Z,86.35
2023-04-18T22:18:33.546Z,85.41
2023-04-18T22:21:02.356Z,85.63
2023-04-18T22:23:30.024Z,85.52
2023-04-18T22:25:56.644Z,85.29
2023-04-18T22:28:23.597Z,85.57
2023-04-18T22:30:50.771Z,85.22
2023-04-18T22:33:17.399Z,85.33
2023-04-18T22:35:44.072Z,85.27
2023-04-18T22:38:10.822Z,85.63
2023-04-18T22:40:37.382Z,85.31
2023-04-18T22:43:03.929Z,85.72
2023-04-18T22:45:30.656Z,85.83
2023-04-18T22:47:57.216Z,85.63
2023-04-18T22:50:23.840Z,85.89
2023-04-18T22:52:50.981Z,85.69
2023-04-18T22:55:17.612Z,85.75
2023-04-18T22:57:44.140Z,85.21
2023-04-18T23:00:11.453Z,85.41
2023-04-18T23:02:38.165Z,85.45
2023-04-18T23:05:07.260Z,86.48
2023-04-18T23:07:33.843Z,85.58
2023-04-18T23:10:00.520Z,85.50
2023-04-18T23:12:27.710Z,85.81
2023-04-18T23:14:54.229Z,86.26
2023-04-18T23:17:20.913Z,86.12
2023-04-18T23:19:47.486Z,85.98
2023-04-18T23:22:14.029Z,85.65
2023-04-18T23:24:40.556Z,84.85
2023-04-18T23:27:07.106Z,83.63
2023-04-18T23:29:38.248Z,84.20
2023-04-18T23:32:05.798Z,84.00
2023-04-18T23:34:32.389Z,82.42
2023-04-18T23:36:59.339Z,81.88
2023-04-18T23:39:26.590Z,81.80
2023-04-18T23:41:53.138Z,81.46
2023-04-18T23:44:19.811Z,82.62
2023-04-18T23:46:47.191Z,82.89
2023-04-18T23:49:14.260Z,82.26
2023-04-18T23:51:40.817Z,81.29
2023-04-18T23:54:07.596Z,80.78
2023-04-18T23:56:34.614Z,81.67
2023-04-18T23:59:01.243Z,80.44
